createdAt,value
2023-11-15T00:00:26.337Z,76.34
2023-11-15T00:01:26.358Z,76.14
2023-11-15T00:02:26.324Z,76.14
2023-11-15T00:03:26.552Z,75.94
2023-11-15T00:04:26.355Z,76.54
2023-11-15T00:05:26.359Z,76.14
2023-11-15T00:06:26.329Z,74.75
2023-11-15T00:07:26.223Z,75.94
2023-11-15T00:08:26.230Z,76.14
2023-11-15T00:09:26.246Z,76.14
2023-11-15T00:10:26.242Z,75.75
2023-11-15T00:11:26.199Z,76.74
2023-11-15T00:12:26.320Z,76.34
2023-11-15T00:13:26.116Z,76.54
2023-11-15T00:14:26.210Z,75.94
2023-11-15T00:15:28.561Z,75.55
2023-11-15T00:16:26.166Z,76.74
2023-11-15T00:17:26.104Z,75.94
2023-11-15T00:18:26.278Z,75.94
2023-11-15T00:19:26.118Z,75.75
2023-11-15T00:20:26.073Z,76.14
2023-11-15T00:21:26.081Z,76.34
2023-11-15T00:22:26.061Z,75.55
2023-11-15T00:23:26.080Z,75.94
2023-11-15T00:24:26.040Z,76.14
2023-11-15T00:25:26.071Z,75.94
2023-11-15T00:26:26.033Z,75.75
2023-11-15T00:27:25.968Z,76.14
2023-11-15T00:28:25.968Z,75.35
2023-11-15T00:29:25.995Z,75.94
2023-11-15T00:30:25.973Z,75.75
2023-11-15T00:31:25.976Z,75.15
2023-11-15T00:32:25.999Z,75.94
2023-11-15T00:33:26.030Z,75.75
2023-11-15T00:34:25.926Z,75.75
2023-11-15T00:35:25.958Z,76.54
2023-11-15T00:36:26.001Z,75.75
2023-11-15T00:37:26.005Z,75.35
2023-11-15T00:38:25.939Z,75.75
2023-11-15T00:39:25.842Z,76.14
2023-11-15T00:40:25.833Z,75.75
2023-11-15T00:41:25.935Z,75.75
2023-11-15T00:42:25.799Z,75.55
2023-11-15T00:43:25.777Z,75.94
2023-11-15T00:44:25.890Z,76.14
2023-11-15T00:45:25.946Z,75.75
2023-11-15T00:46:25.775Z,75.75
2023-11-15T00:47:25.843Z,75.94
2023-11-15T00:48:25.895Z,75.35
2023-11-15T00:49:25.771Z,75.75
2023-11-15T00:50:25.798Z,75.35
2023-11-15T00:51:25.828Z,75.75
2023-11-15T00:52:25.733Z,75.94
2023-11-15T00:53:25.754Z,75.75
2023-11-15T00:54:25.720Z,75.75
2023-11-15T00:55:25.678Z,75.55
2023-11-15T00:56:25.765Z,75.75
2023-11-15T00:57:25.678Z,76.14
2023-11-15T00:58:25.667Z,75.15
2023-11-15T00:59:25.727Z,76.14
2023-11-15T01:00:25.757Z,75.75
2023-11-15T01:01:25.663Z,75.35
2023-11-15T01:02:25.834Z,75.94
2023-11-15T01:03:25.713Z,76.34
2023-11-15T01:04:25.692Z,75.75
2023-11-15T01:05:25.905Z,75.15
2023-11-15T01:06:25.639Z,75.75
2023-11-15T01:07:25.654Z,75.94
2023-11-15T01:08:25.614Z,75.35
2023-11-15T01:09:25.534Z,75.35
2023-11-15T01:10:25.661Z,75.75
2023-11-15T01:11:25.646Z,75.15
2023-11-15T01:12:25.526Z,75.15
2023-11-15T01:13:25.518Z,75.55
2023-11-15T01:14:25.521Z,75.15
2023-11-15T01:15:25.475Z,70.97
2023-11-15T01:16:25.618Z,75.35
2023-11-15T01:17:25.497Z,74.95
2023-11-15T01:18:25.484Z,75.55
2023-11-15T01:19:25.501Z,75.55
2023-11-15T01:20:25.465Z,75.35
2023-11-15T01:21:25.436Z,75.55
2023-11-15T01:22:25.455Z,75.55
2023-11-15T01:23:25.493Z,75.55
2023-11-15T01:24:25.383Z,75.55
2023-11-15T01:25:25.435Z,75.75
2023-11-15T01:26:25.443Z,75.35
2023-11-15T01:27:25.602Z,74.75
2023-11-15T01:28:25.361Z,75.35
2023-11-15T01:29:25.391Z,75.35
2023-11-15T01:30:25.384Z,75.35
2023-11-15T01:31:25.311Z,75.35
2023-11-15T01:32:25.400Z,75.35
2023-11-15T01:33:25.341Z,75.55
2023-11-15T01:34:25.314Z,75.35
2023-11-15T01:35:25.358Z,75.35
2023-11-15T01:36:25.271Z,75.35
2023-11-15T01:37:25.276Z,76.14
2023-11-15T01:38:25.253Z,75.75
2023-11-15T01:39:25.290Z,75.75
2023-11-15T01:40:25.237Z,75.75
2023-11-15T01:41:25.322Z,76.34
2023-11-15T01:42:25.223Z,75.35
2023-11-15T01:43:25.194Z,75.35
2023-11-15T01:44:25.201Z,75.75
2023-11-15T01:45:25.148Z,75.55
2023-11-15T01:46:25.189Z,75.55
2023-11-15T01:47:25.175Z,75.55
2023-11-15T01:48:25.137Z,75.75
2023-11-15T01:49:25.190Z,75.75
2023-11-15T01:50:25.217Z,75.55
2023-11-15T01:51:25.079Z,75.55
2023-11-15T01:52:25.165Z,75.35
2023-11-15T01:53:25.155Z,75.75
2023-11-15T01:54:25.086Z,75.55
2023-11-15T01:55:25.445Z,75.35
2023-11-15T01:56:25.043Z,75.35
2023-11-15T01:57:25.054Z,75.55
2023-11-15T01:58:25.025Z,75.35
2023-11-15T01:59:25.160Z,75.55
2023-11-15T02:00:24.985Z,75.75
2023-11-15T02:01:25.129Z,74.75
2023-11-15T02:02:25.031Z,75.55
2023-11-15T02:03:25.045Z,75.55
2023-11-15T02:04:24.924Z,75.94
2023-11-15T02:05:25.132Z,75.35
2023-11-15T02:06:24.899Z,75.35
2023-11-15T02:07:24.944Z,74.95
2023-11-15T02:08:25.009Z,75.55
2023-11-15T02:09:24.926Z,74.95
2023-11-15T02:10:24.909Z,75.75
2023-11-15T02:11:24.938Z,75.94
2023-11-15T02:12:24.883Z,75.15
2023-11-15T02:13:24.912Z,75.15
2023-11-15T02:14:24.858Z,76.34
2023-11-15T02:15:24.823Z,75.15
2023-11-15T02:16:24.806Z,75.55
2023-11-15T02:17:24.933Z,74.95
2023-11-15T02:18:24.994Z,75.35
2023-11-15T02:19:24.819Z,74.75
2023-11-15T02:20:24.789Z,75.55
2023-11-15T02:21:25.112Z,75.35
2023-11-15T02:22:24.921Z,75.94
2023-11-15T02:23:24.784Z,75.35
2023-11-15T02:24:24.745Z,76.14
2023-11-15T02:25:24.733Z,75.15
2023-11-15T02:26:24.670Z,74.55
2023-11-15T02:27:24.702Z,75.55
2023-11-15T02:28:24.638Z,74.95
2023-11-15T02:29:24.665Z,74.75
2023-11-15T02:30:24.680Z,75.55
2023-11-15T02:31:24.766Z,74.95
2023-11-15T02:32:24.630Z,75.55
2023-11-15T02:33:24.673Z,75.75
2023-11-15T02:34:24.619Z,75.55
2023-11-15T02:35:24.632Z,74.16
2023-11-15T02:36:24.737Z,76.74
2023-11-15T02:37:24.644Z,75.15
2023-11-15T02:38:24.619Z,75.55
2023-11-15T02:39:24.563Z,75.55
2023-11-15T02:40:24.749Z,75.55
2023-11-15T02:41:24.602Z,74.75
2023-11-15T02:42:24.560Z,74.95
2023-11-15T02:43:24.542Z,75.15
2023-11-15T02:44:24.577Z,75.35
2023-11-15T02:45:24.495Z,75.55
2023-11-15T02:46:24.612Z,75.55
2023-11-15T02:47:24.566Z,74.75
2023-11-15T02:48:24.598Z,75.15
2023-11-15T02:49:24.455Z,74.95
2023-11-15T02:50:24.470Z,75.15
2023-11-15T02:51:24.438Z,74.16
2023-11-15T02:52:24.476Z,75.15
2023-11-15T02:53:24.454Z,74.95
2023-11-15T02:54:24.463Z,75.15
2023-11-15T02:55:24.463Z,75.15
2023-11-15T02:56:24.402Z,75.15
2023-11-15T02:57:24.416Z,75.55
2023-11-15T02:58:24.358Z,75.94
2023-11-15T02:59:24.367Z,75.15
2023-11-15T03:00:24.341Z,75.55
2023-11-15T03:01:24.594Z,74.75
2023-11-15T03:02:24.294Z,75.15
2023-11-15T03:03:24.465Z,75.15
2023-11-15T03:04:24.334Z,74.16
2023-11-15T03:05:24.329Z,74.55
2023-11-15T03:06:24.280Z,74.95
2023-11-15T03:07:24.231Z,74.75
2023-11-15T03:08:24.289Z,75.15
2023-11-15T03:09:24.190Z,75.35
2023-11-15T03:10:24.222Z,74.95
2023-11-15T03:11:24.192Z,75.35
2023-11-15T03:12:24.201Z,74.75
2023-11-15T03:13:24.161Z,74.55
2023-11-15T03:14:24.266Z,74.16
2023-11-15T03:15:24.168Z,74.95
2023-11-15T03:16:24.215Z,75.15
2023-11-15T03:17:24.175Z,74.55
2023-11-15T03:18:24.251Z,74.75
2023-11-15T03:19:24.126Z,75.94
2023-11-15T03:20:24.157Z,74.55
2023-11-15T03:21:24.108Z,74.35
2023-11-15T03:22:24.063Z,75.15
2023-11-15T03:23:24.188Z,74.95
2023-11-15T03:24:24.109Z,75.15
2023-11-15T03:25:24.030Z,74.75
2023-11-15T03:26:24.094Z,75.15
2023-11-15T03:27:24.016Z,74.95
2023-11-15T03:28:24.010Z,73.96
2023-11-15T03:29:24.043Z,74.75
2023-11-15T03:30:24.038Z,75.35
2023-11-15T03:31:23.963Z,74.95
2023-11-15T03:32:24.215Z,74.55
2023-11-15T03:33:23.998Z,75.15
2023-11-15T03:34:23.950Z,75.35
2023-11-15T03:35:23.973Z,75.55
2023-11-15T03:36:23.894Z,74.35
2023-11-15T03:37:23.910Z,75.15
2023-11-15T03:38:23.961Z,74.35
2023-11-15T03:39:23.879Z,76.14
2023-11-15T03:40:23.862Z,75.15
2023-11-15T03:41:23.891Z,74.75
2023-11-15T03:42:23.885Z,70.38
2023-11-15T03:43:23.875Z,74.95
2023-11-15T03:44:23.837Z,74.95
2023-11-15T03:45:23.781Z,75.15
2023-11-15T03:46:23.958Z,74.95
2023-11-15T03:47:23.811Z,74.55
2023-11-15T03:48:23.836Z,75.94
2023-11-15T03:49:23.753Z,75.94
2023-11-15T03:50:23.773Z,76.94
2023-11-15T03:51:23.713Z,74.75
2023-11-15T03:52:23.711Z,75.15
2023-11-15T03:53:23.789Z,74.95
2023-11-15T03:54:23.704Z,74.95
2023-11-15T03:55:23.709Z,73.96
2023-11-15T03:56:23.737Z,75.15
2023-11-15T03:57:23.658Z,74.75
2023-11-15T03:58:23.664Z,75.55
2023-11-15T03:59:23.640Z,74.75
2023-11-15T04:00:23.686Z,74.55
2023-11-15T04:01:23.630Z,74.95
2023-11-15T04:02:23.656Z,75.35
2023-11-15T04:03:24.012Z,74.55
2023-11-15T04:04:23.852Z,75.15
2023-11-15T04:05:23.733Z,75.15
2023-11-15T04:06:23.597Z,74.75
2023-11-15T04:07:23.566Z,74.75
2023-11-15T04:08:23.560Z,74.55
2023-11-15T04:09:23.507Z,74.95
2023-11-15T04:10:23.508Z,74.55
2023-11-15T04:11:23.524Z,74.35
2023-11-15T04:12:23.522Z,75.35
2023-11-15T04:13:23.457Z,74.75
2023-11-15T04:14:23.571Z,75.35
2023-11-15T04:15:23.520Z,74.16
2023-11-15T04:16:23.488Z,74.95
2023-11-15T04:17:23.491Z,76.14
2023-11-15T04:18:23.466Z,74.95
2023-11-15T04:19:23.507Z,74.55
2023-11-15T04:20:23.597Z,75.35
2023-11-15T04:21:23.409Z,74.35
2023-11-15T04:22:23.394Z,73.96
2023-11-15T04:23:23.402Z,74.35
2023-11-15T04:24:23.381Z,74.35
2023-11-15T04:25:23.360Z,74.75
2023-11-15T04:26:23.437Z,74.75
2023-11-15T04:27:23.386Z,74.16
2023-11-15T04:28:23.295Z,74.55
2023-11-15T04:29:23.352Z,75.15
2023-11-15T04:30:23.284Z,75.15
2023-11-15T04:31:23.291Z,74.16
2023-11-15T04:32:23.320Z,69.98
2023-11-15T04:33:23.667Z,75.15
2023-11-15T04:34:23.274Z,74.75
2023-11-15T04:35:23.218Z,74.75
2023-11-15T04:36:23.249Z,74.35
2023-11-15T04:37:23.203Z,74.55
2023-11-15T04:38:23.212Z,74.75
2023-11-15T04:39:23.240Z,73.96
2023-11-15T04:40:23.184Z,74.75
2023-11-15T04:41:23.187Z,74.35
2023-11-15T04:42:23.200Z,74.55
2023-11-15T04:43:23.157Z,75.35
2023-11-15T04:44:23.143Z,74.95
2023-11-15T04:45:23.306Z,74.55
2023-11-15T04:46:23.207Z,74.95
2023-11-15T04:47:23.121Z,74.95
2023-11-15T04:48:23.266Z,74.35
2023-11-15T04:49:23.120Z,74.16
2023-11-15T04:50:23.052Z,74.55
2023-11-15T04:51:23.051Z,74.35
2023-11-15T04:52:23.088Z,74.75
2023-11-15T04:53:23.006Z,75.15
2023-11-15T04:54:23.006Z,74.75
2023-11-15T04:55:23.221Z,74.75
2023-11-15T04:56:22.999Z,74.75
2023-11-15T04:57:23.009Z,74.35
2023-11-15T04:58:23.036Z,74.35
2023-11-15T04:59:23.004Z,74.35
2023-11-15T05:00:23.047Z,74.75
2023-11-15T05:01:22.998Z,73.16
2023-11-15T05:02:22.990Z,74.16
2023-11-15T05:03:23.090Z,74.55
2023-11-15T05:04:23.176Z,74.35
2023-11-15T05:05:22.920Z,74.16
2023-11-15T05:06:22.893Z,74.75
2023-11-15T05:07:22.874Z,74.16
2023-11-15T05:08:23.112Z,74.75
2023-11-15T05:09:22.878Z,74.35
2023-11-15T05:10:22.875Z,74.35
2023-11-15T05:11:22.911Z,74.75
2023-11-15T05:12:25.029Z,74.35
2023-11-15T05:13:22.849Z,74.35
2023-11-15T05:14:22.854Z,74.75
2023-11-15T05:15:22.843Z,74.55
2023-11-15T05:16:22.810Z,74.35
2023-11-15T05:17:22.819Z,74.55
2023-11-15T05:18:22.864Z,74.16
2023-11-15T05:19:22.779Z,74.55
2023-11-15T05:20:22.789Z,74.55
2023-11-15T05:21:22.753Z,74.35
2023-11-15T05:22:22.771Z,74.55
2023-11-15T05:23:23.357Z,74.16
2023-11-15T05:24:22.739Z,74.75
2023-11-15T05:25:22.714Z,74.95
2023-11-15T05:26:22.756Z,75.15
2023-11-15T05:27:22.693Z,75.35
2023-11-15T05:28:22.831Z,75.15
2023-11-15T05:29:22.775Z,75.15
2023-11-15T05:30:22.764Z,75.94
2023-11-15T05:31:22.628Z,75.55
2023-11-15T05:32:22.768Z,75.55
2023-11-15T05:33:22.711Z,75.75
2023-11-15T05:34:22.603Z,75.75
2023-11-15T05:35:22.663Z,75.94
2023-11-15T05:36:22.580Z,75.75
2023-11-15T05:37:22.594Z,75.55
2023-11-15T05:38:22.556Z,75.94
2023-11-15T05:39:22.642Z,75.75
2023-11-15T05:40:22.551Z,75.94
2023-11-15T05:41:25.614Z,76.94
2023-11-15T05:42:23.547Z,75.35
2023-11-15T05:43:22.556Z,76.54
2023-11-15T05:44:22.500Z,76.94
2023-11-15T05:45:22.471Z,76.94
2023-11-15T05:46:22.588Z,77.73
2023-11-15T05:47:22.445Z,78.13
2023-11-15T05:48:22.601Z,78.53
2023-11-15T05:49:22.467Z,78.13
2023-11-15T05:50:22.399Z,80.12
2023-11-15T05:51:22.393Z,79.92
2023-11-15T05:52:22.389Z,80.12
2023-11-15T05:53:22.448Z,80.52
2023-11-15T05:54:22.379Z,79.72
2023-11-15T05:55:22.389Z,80.72
2023-11-15T05:56:22.378Z,80.32
2023-11-15T05:57:22.425Z,79.72
2023-11-15T05:58:22.362Z,80.32
2023-11-15T05:59:22.315Z,80.91
2023-11-15T06:00:22.303Z,78.93
2023-11-15T06:01:22.319Z,80.12
2023-11-15T06:02:22.252Z,80.32
2023-11-15T06:03:22.314Z,80.52
2023-11-15T06:04:22.303Z,80.91
2023-11-15T06:05:22.354Z,80.91
2023-11-15T06:06:22.235Z,81.11
2023-11-15T06:07:22.239Z,81.11
2023-11-15T06:08:22.376Z,81.51
2023-11-15T06:09:22.203Z,81.11
2023-11-15T06:10:22.231Z,80.72
2023-11-15T06:11:22.281Z,80.91
2023-11-15T06:12:22.188Z,82.90
2023-11-15T06:13:22.192Z,81.11
2023-11-15T06:14:22.285Z,81.11
2023-11-15T06:15:22.159Z,81.11
2023-11-15T06:16:22.180Z,80.72
2023-11-15T06:17:22.117Z,80.72
2023-11-15T06:18:22.207Z,81.11
2023-11-15T06:19:22.091Z,81.71
2023-11-15T06:20:22.092Z,80.52
2023-11-15T06:21:22.144Z,80.12
2023-11-15T06:22:22.317Z,80.72
2023-11-15T06:23:22.080Z,80.91
2023-11-15T06:24:22.259Z,80.91
2023-11-15T06:25:22.090Z,80.72
2023-11-15T06:26:22.083Z,80.72
2023-11-15T06:27:22.077Z,80.32
2023-11-15T06:28:22.025Z,80.52
2023-11-15T06:29:22.017Z,80.91
2023-11-15T06:30:22.085Z,80.72
2023-11-15T06:31:21.998Z,80.52
2023-11-15T06:32:22.039Z,81.11
2023-11-15T06:33:22.105Z,80.72
2023-11-15T06:34:21.994Z,80.52
2023-11-15T06:35:21.988Z,80.12
2023-11-15T06:36:21.927Z,80.91
2023-11-15T06:37:21.933Z,79.92
2023-11-15T06:38:21.884Z,80.12
2023-11-15T06:39:21.921Z,79.92
2023-11-15T06:40:21.935Z,80.12
2023-11-15T06:41:22.482Z,80.32
2023-11-15T06:42:21.844Z,80.12
2023-11-15T06:43:21.831Z,80.12
2023-11-15T06:44:21.863Z,80.32
2023-11-15T06:45:21.918Z,80.52
2023-11-15T06:46:21.856Z,80.52
2023-11-15T06:47:21.824Z,80.52
2023-11-15T06:48:21.982Z,80.52
2023-11-15T06:49:21.805Z,80.72
2023-11-15T06:50:21.895Z,82.90
2023-11-15T06:51:21.794Z,80.52
2023-11-15T06:52:21.765Z,80.72
2023-11-15T06:53:21.726Z,80.52
2023-11-15T06:54:21.729Z,80.12
2023-11-15T06:55:21.733Z,80.32
2023-11-15T06:56:21.687Z,80.52
2023-11-15T06:57:21.716Z,80.91
2023-11-15T06:58:21.684Z,78.33
2023-11-15T06:59:21.657Z,80.12
2023-11-15T07:00:21.880Z,79.92
2023-11-15T07:01:21.701Z,80.12
2023-11-15T07:02:21.672Z,79.92
2023-11-15T07:03:21.748Z,80.52
2023-11-15T07:04:21.705Z,80.12
2023-11-15T07:05:21.643Z,80.32
2023-11-15T07:06:21.588Z,80.32
2023-11-15T07:07:21.588Z,80.52
2023-11-15T07:08:21.570Z,80.32
2023-11-15T07:09:21.622Z,80.72
2023-11-15T07:10:21.589Z,80.12
2023-11-15T07:11:21.538Z,79.92
2023-11-15T07:12:21.566Z,80.52
2023-11-15T07:13:21.553Z,80.52
2023-11-15T07:14:21.502Z,80.72
2023-11-15T07:15:21.519Z,81.11
2023-11-15T07:16:21.587Z,80.91
2023-11-15T07:17:21.459Z,80.91
2023-11-15T07:18:21.538Z,80.72
2023-11-15T07:19:21.437Z,81.11
2023-11-15T07:20:21.480Z,81.91
2023-11-15T07:21:21.446Z,81.31
2023-11-15T07:22:21.388Z,81.11
2023-11-15T07:23:21.434Z,80.52
2023-11-15T07:24:21.396Z,80.32
2023-11-15T07:25:21.357Z,80.91
2023-11-15T07:26:21.353Z,80.52
2023-11-15T07:27:21.533Z,80.72
2023-11-15T07:28:21.497Z,81.11
2023-11-15T07:29:21.772Z,79.92
2023-11-15T07:30:21.625Z,81.11
2023-11-15T07:31:21.535Z,81.31
2023-11-15T07:32:21.302Z,81.11
2023-11-15T07:33:21.390Z,80.91
2023-11-15T07:34:21.276Z,80.12
2023-11-15T07:35:21.273Z,80.32
2023-11-15T07:36:21.277Z,80.32
2023-11-15T07:37:21.214Z,80.72
2023-11-15T07:38:21.247Z,80.72
2023-11-15T07:39:21.338Z,80.72
2023-11-15T07:40:21.236Z,79.32
2023-11-15T07:41:21.162Z,80.72
2023-11-15T07:42:21.193Z,80.12
2023-11-15T07:43:21.226Z,80.91
2023-11-15T07:44:21.268Z,80.91
2023-11-15T07:45:21.146Z,80.52
2023-11-15T07:46:21.151Z,80.52
2023-11-15T07:47:21.130Z,80.72
2023-11-15T07:48:21.197Z,81.11
2023-11-15T07:49:21.406Z,80.52
2023-11-15T07:50:21.099Z,80.72
2023-11-15T07:51:21.094Z,80.72
2023-11-15T07:52:21.048Z,81.11
2023-11-15T07:53:21.070Z,81.31
2023-11-15T07:54:21.090Z,80.91
2023-11-15T07:55:23.067Z,81.11
2023-11-15T07:56:21.064Z,79.92
2023-11-15T07:57:21.024Z,79.72
2023-11-15T07:58:20.997Z,81.11
2023-11-15T07:59:20.988Z,80.91
2023-11-15T08:00:20.952Z,80.72
2023-11-15T08:01:20.955Z,81.31
2023-11-15T08:02:20.948Z,80.91
2023-11-15T08:03:21.043Z,80.91
2023-11-15T08:04:21.035Z,81.11
2023-11-15T08:05:20.884Z,80.91
2023-11-15T08:06:20.941Z,81.11
2023-11-15T08:07:20.945Z,80.72
2023-11-15T08:08:20.912Z,81.31
2023-11-15T08:09:21.258Z,81.71
2023-11-15T08:10:20.866Z,80.91
2023-11-15T08:11:20.845Z,81.71
2023-11-15T08:12:21.108Z,81.71
2023-11-15T08:13:20.811Z,81.51
2023-11-15T08:14:20.778Z,82.11
2023-11-15T08:15:20.788Z,81.71
2023-11-15T08:16:20.750Z,82.31
2023-11-15T08:17:20.758Z,81.71
2023-11-15T08:18:20.877Z,81.71
2023-11-15T08:19:20.774Z,81.31
2023-11-15T08:20:20.735Z,81.71
2023-11-15T08:21:20.725Z,81.91
2023-11-15T08:22:20.714Z,81.71
2023-11-15T08:23:20.707Z,81.91
2023-11-15T08:24:20.709Z,81.31
2023-11-15T08:25:20.709Z,82.50
2023-11-15T08:26:20.710Z,81.71
2023-11-15T08:27:20.636Z,81.71
2023-11-15T08:28:20.649Z,82.11
2023-11-15T08:29:20.612Z,82.31
2023-11-15T08:30:20.584Z,80.72
2023-11-15T08:31:20.644Z,81.91
2023-11-15T08:32:20.700Z,81.71
2023-11-15T08:33:20.676Z,82.11
2023-11-15T08:34:23.410Z,81.91
2023-11-15T08:35:20.599Z,81.91
2023-11-15T08:36:20.554Z,82.70
2023-11-15T08:37:20.534Z,81.71
2023-11-15T08:38:20.537Z,81.91
2023-11-15T08:39:20.562Z,77.93
2023-11-15T08:40:26.839Z,82.70
2023-11-15T08:41:21.524Z,82.11
2023-11-15T08:42:20.542Z,81.31
2023-11-15T08:43:20.495Z,81.91
2023-11-15T08:44:20.493Z,81.51
2023-11-15T08:45:20.544Z,81.71
2023-11-15T08:46:20.515Z,81.71
2023-11-15T08:47:20.510Z,81.51
2023-11-15T08:48:20.533Z,82.31
2023-11-15T08:49:20.484Z,81.51
2023-11-15T08:50:20.371Z,81.31
2023-11-15T08:51:20.372Z,80.52
2023-11-15T08:52:20.386Z,81.31
2023-11-15T08:53:20.362Z,81.71
2023-11-15T08:54:20.321Z,81.71
2023-11-15T08:55:20.338Z,81.71
2023-11-15T08:56:20.336Z,81.11
2023-11-15T08:57:21.092Z,81.91
2023-11-15T08:58:22.945Z,81.71
2023-11-15T08:59:20.378Z,81.71
2023-11-15T09:00:20.307Z,82.31
2023-11-15T09:01:20.353Z,81.71
2023-11-15T09:02:20.441Z,81.31
2023-11-15T09:03:21.382Z,81.71
2023-11-15T09:04:20.253Z,81.51
2023-11-15T09:05:20.203Z,81.71
2023-11-15T09:06:20.228Z,81.11
2023-11-15T09:07:20.179Z,81.31
2023-11-15T09:08:20.210Z,82.70
2023-11-15T09:09:20.180Z,80.72
2023-11-15T09:10:20.228Z,81.51
2023-11-15T09:11:20.158Z,81.31
2023-11-15T09:12:20.707Z,81.51
2023-11-15T09:13:20.161Z,81.11
2023-11-15T09:14:20.126Z,81.71
2023-11-15T09:15:20.184Z,81.31
2023-11-15T09:16:20.135Z,80.91
2023-11-15T09:17:20.112Z,81.31
2023-11-15T09:18:20.161Z,80.52
2023-11-15T09:19:20.063Z,81.11
2023-11-15T09:20:20.097Z,80.91
2023-11-15T09:21:20.047Z,81.31
2023-11-15T09:22:20.128Z,81.91
2023-11-15T09:23:28.335Z,80.91
2023-11-15T09:24:21.037Z,80.91
2023-11-15T09:25:20.043Z,80.91
2023-11-15T09:26:20.068Z,80.72
2023-11-15T09:27:20.138Z,81.31
2023-11-15T09:28:20.061Z,81.71
2023-11-15T09:29:19.962Z,81.11
2023-11-15T09:30:19.950Z,80.91
2023-11-15T09:31:19.967Z,80.91
2023-11-15T09:32:20.007Z,80.52
2023-11-15T09:33:20.012Z,80.72
2023-11-15T09:34:20.059Z,81.31
2023-11-15T09:35:19.879Z,81.31
2023-11-15T09:36:19.899Z,80.12
2023-11-15T09:37:20.073Z,80.91
2023-11-15T09:38:19.846Z,80.91
2023-11-15T09:39:19.873Z,79.52
2023-11-15T09:40:19.826Z,80.72
2023-11-15T09:41:19.860Z,80.32
2023-11-15T09:42:19.825Z,80.52
2023-11-15T09:43:19.842Z,80.32
2023-11-15T09:44:19.818Z,80.32
2023-11-15T09:45:19.996Z,80.52
2023-11-15T09:46:19.813Z,81.31
2023-11-15T09:47:19.774Z,80.52
2023-11-15T09:48:19.920Z,80.72
2023-11-15T09:49:19.873Z,80.91
2023-11-15T09:50:20.154Z,81.11
2023-11-15T09:51:19.746Z,80.52
2023-11-15T09:52:19.671Z,80.52
2023-11-15T09:53:19.708Z,80.72
2023-11-15T09:54:19.765Z,79.72
2023-11-15T09:55:19.709Z,80.72
2023-11-15T09:56:19.674Z,80.12
2023-11-15T09:57:19.676Z,79.92
2023-11-15T09:58:19.701Z,80.12
2023-11-15T09:59:19.749Z,80.91
2023-11-15T10:00:22.449Z,80.32
2023-11-15T10:01:19.658Z,80.52
2023-11-15T10:02:19.625Z,80.52
2023-11-15T10:03:19.673Z,79.52
2023-11-15T10:04:19.577Z,80.32
2023-11-15T10:05:19.563Z,80.72
2023-11-15T10:06:19.557Z,80.52
2023-11-15T10:07:19.548Z,80.32
2023-11-15T10:08:19.594Z,80.52
2023-11-15T10:09:19.650Z,80.52
2023-11-15T10:10:19.598Z,80.12
2023-11-15T10:11:19.530Z,80.12
2023-11-15T10:12:19.512Z,80.32
2023-11-15T10:13:19.604Z,80.91
2023-11-15T10:14:19.478Z,80.12
2023-11-15T10:15:19.493Z,80.91
2023-11-15T10:16:19.510Z,80.72
2023-11-15T10:17:19.450Z,80.32
2023-11-15T10:18:19.677Z,80.32
2023-11-15T10:19:19.442Z,80.32
2023-11-15T10:20:19.473Z,80.52
2023-11-15T10:21:19.836Z,79.13
2023-11-15T10:22:19.408Z,79.92
2023-11-15T10:23:19.406Z,80.32
2023-11-15T10:24:19.400Z,80.12
2023-11-15T10:25:19.379Z,80.32
2023-11-15T10:26:19.357Z,80.32
2023-11-15T10:27:19.356Z,80.32
2023-11-15T10:28:19.349Z,79.92
2023-11-15T10:29:19.349Z,79.72
2023-11-15T10:30:19.310Z,80.32
2023-11-15T10:31:19.324Z,79.92
2023-11-15T10:32:19.288Z,79.72
2023-11-15T10:33:19.342Z,80.12
2023-11-15T10:34:21.439Z,79.92
2023-11-15T10:35:19.275Z,79.72
2023-11-15T10:36:19.444Z,79.72
2023-11-15T10:37:19.362Z,80.32
2023-11-15T10:38:19.227Z,80.52
2023-11-15T10:39:19.244Z,80.12
2023-11-15T10:40:19.244Z,79.72
2023-11-15T10:41:19.191Z,78.93
2023-11-15T10:42:19.418Z,79.52
2023-11-15T10:43:19.187Z,80.32
2023-11-15T10:44:19.277Z,80.12
2023-11-15T10:45:19.157Z,80.72
2023-11-15T10:46:19.153Z,75.75
2023-11-15T10:47:19.200Z,79.92
2023-11-15T10:48:21.294Z,79.92
2023-11-15T10:49:19.167Z,79.92
2023-11-15T10:50:19.107Z,80.12
2023-11-15T10:51:19.122Z,80.32
2023-11-15T10:52:19.059Z,79.72
2023-11-15T10:53:19.125Z,79.72
2023-11-15T10:54:19.099Z,81.11
2023-11-15T10:55:19.060Z,79.92
2023-11-15T10:56:19.116Z,79.72
2023-11-15T10:57:19.013Z,79.92
2023-11-15T10:58:19.042Z,79.92
2023-11-15T10:59:18.976Z,80.12
2023-11-15T11:00:19.199Z,80.52
2023-11-15T11:01:19.092Z,79.72
2023-11-15T11:02:19.089Z,79.92
2023-11-15T11:03:19.120Z,80.32
2023-11-15T11:04:19.090Z,79.92
2023-11-15T11:05:18.948Z,79.72
2023-11-15T11:06:19.220Z,81.71
2023-11-15T11:07:18.897Z,79.92
2023-11-15T11:08:18.903Z,79.72
2023-11-15T11:09:18.962Z,78.73
2023-11-15T11:10:19.922Z,79.92
2023-11-15T11:11:18.854Z,79.52
2023-11-15T11:12:18.997Z,80.12
2023-11-15T11:13:18.831Z,80.12
2023-11-15T11:14:18.886Z,79.72
2023-11-15T11:15:18.976Z,79.92
2023-11-15T11:16:22.109Z,79.13
2023-11-15T11:17:19.801Z,79.92
2023-11-15T11:18:18.976Z,79.32
2023-11-15T11:19:18.818Z,79.72
2023-11-15T11:20:18.781Z,79.52
2023-11-15T11:21:18.787Z,80.12
2023-11-15T11:22:18.756Z,79.52
2023-11-15T11:23:19.123Z,79.32
2023-11-15T11:24:18.761Z,80.32
2023-11-15T11:25:18.793Z,79.32
2023-11-15T11:26:18.980Z,79.72
2023-11-15T11:27:18.734Z,79.72
2023-11-15T11:28:18.733Z,79.52
2023-11-15T11:29:18.680Z,79.32
2023-11-15T11:30:20.756Z,79.32
2023-11-15T11:31:18.635Z,80.12
2023-11-15T11:32:18.633Z,79.72
2023-11-15T11:33:18.668Z,79.72
2023-11-15T11:34:18.591Z,79.32
2023-11-15T11:35:18.632Z,80.12
2023-11-15T11:36:18.639Z,79.32
2023-11-15T11:37:18.559Z,79.72
2023-11-15T11:38:18.576Z,79.52
2023-11-15T11:39:18.537Z,79.52
2023-11-15T11:40:18.537Z,79.52
2023-11-15T11:41:18.540Z,79.52
2023-11-15T11:42:18.881Z,78.93
2023-11-15T11:43:18.502Z,79.32
2023-11-15T11:44:18.478Z,79.32
2023-11-15T11:45:18.496Z,79.52
2023-11-15T11:46:18.479Z,79.72
2023-11-15T11:47:18.460Z,79.13
2023-11-15T11:48:18.623Z,78.33
2023-11-15T11:49:18.434Z,79.32
2023-11-15T11:50:18.430Z,80.12
2023-11-15T11:51:18.487Z,78.93
2023-11-15T11:52:18.548Z,79.52
2023-11-15T11:53:18.458Z,79.52
2023-11-15T11:54:18.548Z,79.52
2023-11-15T11:55:18.381Z,80.12
2023-11-15T11:56:18.367Z,79.13
2023-11-15T11:57:18.404Z,79.32
2023-11-15T11:58:18.325Z,79.32
2023-11-15T11:59:18.358Z,79.72
2023-11-15T12:00:21.510Z,79.13
2023-11-15T12:01:18.389Z,78.93
2023-11-15T12:02:18.305Z,80.52
2023-11-15T12:03:19.031Z,79.13
2023-11-15T12:04:18.453Z,78.53
2023-11-15T12:05:18.654Z,78.93
2023-11-15T12:06:18.371Z,78.73
2023-11-15T12:07:18.236Z,78.93
2023-11-15T12:08:18.241Z,78.93
2023-11-15T12:09:18.612Z,78.13
2023-11-15T12:10:18.224Z,79.32
2023-11-15T12:11:18.202Z,79.13
2023-11-15T12:12:18.476Z,79.72
2023-11-15T12:13:18.150Z,79.52
2023-11-15T12:14:18.161Z,79.52
2023-11-15T12:15:18.234Z,79.13
2023-11-15T12:16:18.218Z,78.53
2023-11-15T12:17:18.238Z,78.73
2023-11-15T12:18:18.176Z,78.33
2023-11-15T12:19:18.110Z,78.53
2023-11-15T12:20:18.077Z,79.32
2023-11-15T12:21:18.042Z,79.13
2023-11-15T12:22:18.052Z,78.93
2023-11-15T12:23:18.031Z,78.53
2023-11-15T12:24:18.061Z,78.53
2023-11-15T12:25:18.009Z,78.93
2023-11-15T12:26:18.377Z,79.13
2023-11-15T12:27:18.071Z,79.13
2023-11-15T12:28:18.035Z,79.13
2023-11-15T12:29:18.054Z,78.93
2023-11-15T12:30:18.037Z,78.53
2023-11-15T12:31:17.979Z,78.53
2023-11-15T12:32:17.948Z,78.53
2023-11-15T12:33:17.979Z,78.93
2023-11-15T12:34:17.951Z,78.53
2023-11-15T12:35:17.953Z,78.93
2023-11-15T12:36:17.968Z,78.33
2023-11-15T12:37:17.903Z,79.13
2023-11-15T12:38:18.466Z,77.53
2023-11-15T12:39:17.909Z,78.33
2023-11-15T12:40:17.876Z,78.13
2023-11-15T12:41:17.835Z,78.93
2023-11-15T12:42:17.889Z,78.73
2023-11-15T12:43:17.844Z,78.73
2023-11-15T12:44:17.934Z,78.93
2023-11-15T12:45:17.837Z,78.33
2023-11-15T12:46:20.496Z,78.73
2023-11-15T12:47:17.769Z,78.53
2023-11-15T12:48:17.872Z,80.32
2023-11-15T12:49:17.871Z,77.93
2023-11-15T12:50:17.794Z,78.33
2023-11-15T12:51:18.166Z,77.34
2023-11-15T12:52:17.719Z,78.13